Time;durP1;ratioP1;P1;durP2;ratioP2;P2;SDS_P1;SDS_P2;PMS_P1;PMS_P2;Temp;Humidity;BMP_temperature;BMP_pressure;BME280_temperature;BME280_humidity;BME280_pressure;Samples;Min_cycle;Max_cycle;Signal;HPM_P1;HPM_P2
2022/03/16 00:00:19;;;;;;;0.50;0.50;;;;;;;10.90;52.35;101939.72;695565;28;22377;-67
2022/03/16 00:00:41;;;;;;;0.45;0.45;;;;;;;10.90;52.24;101938.88;694919;28;69727;-68
2022/03/16 00:01:04;;;;;;;0.50;0.50;;;;;;;10.90;51.90;101930.75;695943;28;21355;-67
2022/03/16 00:01:25;;;;;;;0.60;0.60;;;;;;;10.90;52.38;101930.75;695403;28;67560;-68
2022/03/16 00:01:46;;;;;;;0.50;0.50;;;;;;;10.90;52.17;101931.59;696030;28;23418;-67
2022/03/16 00:02:08;;;;;;;0.50;0.50;;;;;;;10.91;51.89;101929.72;697877;28;22271;-67
2022/03/16 00:02:30;;;;;;;0.50;0.50;;;;;;;10.91;51.88;101933.31;696686;28;21350;-67
2022/03/16 00:02:52;;;;;;;0.55;0.55;;;;;;;10.91;52.03;101935.13;694309;28;2369;-68
2022/03/16 00:03:13;;;;;;;0.60;0.60;;;;;;;10.91;52.29;101935.13;694848;28;1343;-67
2022/03/16 00:03:34;;;;;;;0.50;0.50;;;;;;;10.92;51.81;101936.84;697472;28;24705;-67
2022/03/16 00:03:56;;;;;;;0.50;0.50;;;;;;;10.89;52.16;101937.16;695792;28;22556;-68
2022/03/16 00:04:17;;;;;;;0.50;0.50;;;;;;;10.90;52.07;101937.00;696442;28;46378;-68
2022/03/16 00:04:38;;;;;;;0.60;0.60;;;;;;;10.91;52.03;101938.72;697859;28;21354;-67
2022/03/16 00:04:59;;;;;;;0.60;0.60;;;;;;;10.91;51.90;101932.44;701377;28;22409;-68
2022/03/16 00:05:23;;;;;;;0.57;0.57;;;;;;;10.89;51.71;101929.03;700529;28;23586;-68
2022/03/16 00:05:44;;;;;;;0.45;0.45;;;;;;;10.90;52.23;101936.16;693250;28;92133;-68
2022/03/16 00:06:05;;;;;;;0.52;0.52;;;;;;;10.92;51.90;101932.28;696629;28;23406;-67
2022/03/16 00:06:26;;;;;;;0.60;0.60;;;;;;;10.91;52.10;101935.13;695853;28;22464;-67
2022/03/16 00:06:47;;;;;;;0.60;0.60;;;;;;;10.92;52.22;101937.69;695705;28;23278;-67
2022/03/16 00:07:09;;;;;;;0.50;0.50;;;;;;;10.94;52.19;101943.81;696678;28;22330;-67
2022/03/16 00:07:31;;;;;;;0.47;0.47;;;;;;;10.96;51.81;101938.28;695972;28;44379;-68
2022/03/16 00:07:54;;;;;;;0.55;0.55;;;;;;;10.95;51.77;101933.84;696524;28;23461;-67
2022/03/16 00:08:16;;;;;;;0.60;0.60;;;;;;;10.96;51.69;101935.56;695117;28;67515;-67
2022/03/16 00:08:37;;;;;;;0.60;0.60;;;;;;;10.96;51.87;101939.09;697124;28;45129;-68
2022/03/16 00:08:58;;;;;;;0.50;0.50;;;;;;;10.95;51.82;101939.25;697487;28;21567;-67
2022/03/16 00:09:19;;;;;;;0.50;0.50;;;;;;;10.94;52.00;101941.13;696249;28;22266;-68
2022/03/16 00:09:40;;;;;;;0.60;0.60;;;;;;;10.93;51.88;101943.97;696213;28;23526;-67
2022/03/16 00:10:03;;;;;;;0.60;0.60;;;;;;;10.90;52.33;101933.47;695886;28;46287;-68
2022/03/16 00:10:25;;;;;;;0.50;0.50;;;;;;;10.92;51.98;101939.56;696416;28;15097;-67
2022/03/16 00:10:50;;;;;;;0.50;0.50;;;;;;;10.89;52.00;101943.41;695744;28;38883;-68
2022/03/16 00:11:14;;;;;;;0.60;0.60;;;;;;;10.90;52.07;101945.13;697416;28;1030;-68
2022/03/16 00:11:35;;;;;;;0.70;0.70;;;;;;;10.89;51.93;101942.56;692781;28;46416;-67
2022/03/16 00:11:56;;;;;;;0.60;0.60;;;;;;;10.90;52.14;101941.56;691536;28;20114;-67
2022/03/16 00:12:18;;;;;;;0.60;0.60;;;;;;;10.90;52.23;101941.56;694045;28;21596;-68
2022/03/16 00:12:41;;;;;;;0.60;0.60;;;;;;;10.89;52.03;101945.25;692970;28;46049;-67
2022/03/16 00:13:02;;;;;;;0.60;0.60;;;;;;;10.88;51.90;101943.53;691442;28;67517;-68
2022/03/16 00:13:23;;;;;;;0.60;0.60;;;;;;;10.88;52.19;101947.13;694822;28;22416;-68
2022/03/16 00:13:44;;;;;;;0.50;0.50;;;;;;;10.90;52.22;101952.38;697629;28;46119;-67
2022/03/16 00:14:06;;;;;;;0.50;0.50;;;;;;;10.91;51.79;101948.66;699097;28;22423;-67
2022/03/16 00:14:27;;;;;;;0.57;0.57;;;;;;;10.91;52.35;101946.81;697013;28;22593;-67
2022/03/16 00:14:48;;;;;;;0.60;0.60;;;;;;;10.90;52.25;101945.13;696777;28;46505;-67
2022/03/16 00:15:11;;;;;;;0.60;0.60;;;;;;;10.90;52.05;101942.41;697243;28;23354;-68
2022/03/16 00:15:32;;;;;;;0.52;0.52;;;;;;;10.90;52.14;101947.81;695713;28;44395;-68
2022/03/16 00:15:53;;;;;;;0.50;0.50;;;;;;;10.90;52.18;101949.69;696721;28;22406;-68
2022/03/16 00:16:14;;;;;;;0.60;0.60;;;;;;;10.89;52.15;101946.09;696148;28;23479;-67
2022/03/16 00:16:35;;;;;;;0.70;0.70;;;;;;;10.86;52.28;101941.03;696314;28;22391;-68
2022/03/16 00:16:57;;;;;;;0.60;0.60;;;;;;;10.86;51.88;101949.13;697420;28;23501;-68
2022/03/16 00:17:18;;;;;;;0.50;0.50;;;;;;;10.87;51.90;101947.28;695125;28;45255;-67
2022/03/16 00:17:39;;;;;;;0.50;0.50;;;;;;;10.87;52.29;101949.97;697525;28;21381;-68
2022/03/16 00:18:01;;;;;;;0.57;0.57;;;;;;;10.85;51.98;101941.19;696470;28;22283;-67
2022/03/16 00:18:22;;;;;;;0.60;0.60;;;;;;;10.84;51.88;101948.41;696278;28;22445;-67
2022/03/16 00:18:44;;;;;;;0.60;0.60;;;;;;;10.86;52.05;101949.13;695979;28;69453;-67
2022/03/16 00:19:05;;;;;;;0.50;0.50;;;;;;;10.84;52.30;101944.88;696300;28;21579;-67
2022/03/16 00:19:26;;;;;;;0.50;0.50;;;;;;;10.84;52.26;101947.56;696644;28;23316;-67
2022/03/16 00:19:47;;;;;;;0.70;0.70;;;;;;;10.79;52.39;101948.84;695972;28;22505;-67
2022/03/16 00:20:12;;;;;;;0.68;0.68;;;;;;;10.80;52.40;101947.88;696504;28;24595;-67
2022/03/16 00:20:34;;;;;;;0.60;0.60;;;;;;;10.80;52.29;101947.03;692777;28;115147;-67
2022/03/16 00:20:56;;;;;;;0.50;0.50;;;;;;;10.77;52.52;101947.31;695464;28;46321;-68
2022/03/16 00:21:17;;;;;;;0.60;0.60;;;;;;;10.75;52.18;101944.78;696677;28;23404;-68
2022/03/16 00:21:39;;;;;;;0.60;0.60;;;;;;;10.71;52.49;101937.09;696629;28;23481;-68
2022/03/16 00:22:02;;;;;;;0.60;0.60;;;;;;;10.71;52.57;101945.22;696398;28;44403;-67
2022/03/16 00:22:23;;;;;;;0.50;0.50;;;;;;;10.68;52.23;101949.06;694241;28;69441;-67
2022/03/16 00:22:45;;;;;;;0.45;0.45;;;;;;;10.66;52.68;101944.78;697123;28;22394;-68
2022/03/16 00:23:06;;;;;;;0.60;0.60;;;;;;;10.63;52.43;101946.78;696470;28;45275;-67
2022/03/16 00:23:27;;;;;;;0.70;0.70;;;;;;;10.60;52.67;101943.53;696733;28;23441;-68
2022/03/16 00:23:48;;;;;;;0.55;0.55;;;;;;;10.59;52.73;101947.22;695966;28;22461;-67
2022/03/16 00:24:10;;;;;;;0.40;0.40;;;;;;;10.56;52.68;101947.53;697116;28;1886;-68
2022/03/16 00:24:32;;;;;;;0.45;0.45;;;;;;;10.52;52.79;101943.44;695915;28;44280;-67
2022/03/16 00:24:53;;;;;;;0.70;0.70;;;;;;;10.49;52.98;101952.69;697260;28;23467;-67
2022/03/16 00:25:14;;;;;;;0.60;0.60;;;;;;;10.46;53.09;101948.41;695886;28;21297;-67
2022/03/16 00:25:36;;;;;;;0.50;0.50;;;;;;;10.44;52.89;101945.00;697380;28;23456;-67
2022/03/16 00:25:57;;;;;;;0.40;0.40;;;;;;;10.43;53.15;101948.69;696172;28;45288;-67
2022/03/16 00:26:19;;;;;;;0.50;0.50;;;;;;;10.41;53.42;101945.31;696445;28;22397;-68
2022/03/16 00:26:41;;;;;;;0.70;0.70;;;;;;;10.41;53.01;101952.56;694466;28;63658;-67
2022/03/16 00:27:05;;;;;;;0.60;0.60;;;;;;;10.39;53.27;101944.59;696324;28;45474;-67
2022/03/16 00:27:27;;;;;;;0.50;0.50;;;;;;;10.38;53.27;101942.91;698664;28;88658;-67
2022/03/16 00:27:48;;;;;;;0.40;0.40;;;;;;;10.38;53.17;101942.06;701765;28;33234;-67
2022/03/16 00:28:10;;;;;;;0.60;0.60;;;;;;;10.40;53.47;101943.59;701393;28;23537;-67
2022/03/16 00:28:34;;;;;;;0.63;0.63;;;;;;;10.39;53.39;101941.91;700774;28;69365;-67
2022/03/16 00:28:56;;;;;;;0.50;0.50;;;;;;;10.40;53.35;101948.16;700277;28;55022;-67
2022/03/16 00:29:17;;;;;;;0.50;0.50;;;;;;;10.38;53.49;101945.59;699001;28;45356;-67
2022/03/16 00:29:39;;;;;;;0.50;0.50;;;;;;;10.37;53.72;101946.59;696413;28;22422;-67
2022/03/16 00:30:01;;;;;;;0.60;0.60;;;;;;;10.35;53.76;101942.34;696156;28;21528;-67
2022/03/16 00:30:23;;;;;;;0.63;0.63;;;;;;;10.35;53.35;101948.59;696343;28;1256;-68
2022/03/16 00:30:45;;;;;;;0.60;0.60;;;;;;;10.33;53.60;101947.88;693764;28;69492;-68
2022/03/16 00:31:08;;;;;;;0.50;0.50;;;;;;;10.35;53.54;101950.44;698410;28;1448;-68
2022/03/16 00:31:29;;;;;;;0.47;0.47;;;;;;;10.35;53.55;101953.16;698682;28;6138;-67
2022/03/16 00:31:50;;;;;;;0.60;0.60;;;;;;;10.34;54.02;101948.72;699040;28;46403;-67
2022/03/16 00:32:12;;;;;;;0.60;0.60;;;;;;;10.34;53.69;101941.47;700172;28;22405;-68
2022/03/16 00:32:33;;;;;;;0.50;0.50;;;;;;;10.31;53.61;101939.03;698051;28;46998;-68
2022/03/16 00:32:57;;;;;;;0.50;0.50;;;;;;;10.34;53.72;101943.34;692343;28;67525;-67
2022/03/16 00:33:19;;;;;;;0.50;0.50;;;;;;;10.33;53.78;101947.03;691620;28;44170;-67
2022/03/16 00:33:41;;;;;;;0.60;0.60;;;;;;;10.33;53.84;101947.88;692471;28;23477;-67
2022/03/16 00:34:02;;;;;;;0.50;0.50;;;;;;;10.32;53.57;101943.44;690679;28;46385;-67
2022/03/16 00:34:26;;;;;;;0.50;0.50;;;;;;;10.34;53.67;101946.88;690375;28;13296;-67
2022/03/16 00:34:48;;;;;;;0.40;0.40;;;;;;;10.34;53.72;101949.56;692953;28;21540;-67
2022/03/16 00:35:09;;;;;;;0.50;0.50;;;;;;;10.35;53.87;101945.88;695164;28;44440;-67
2022/03/16 00:35:30;;;;;;;0.60;0.60;;;;;;;10.37;53.97;101949.28;692087;28;23496;-67
2022/03/16 00:35:53;;;;;;;0.60;0.60;;;;;;;10.39;54.00;101951.84;690251;28;46420;-68
2022/03/16 00:36:15;;;;;;;0.50;0.50;;;;;;;10.39;53.59;101950.00;691229;28;46470;-67
2022/03/16 00:36:36;;;;;;;0.50;0.50;;;;;;;10.38;53.75;101951.00;693381;28;44389;-67
2022/03/16 00:36:57;;;;;;;0.60;0.60;;;;;;;10.42;53.58;101951.53;690868;28;22357;-67
2022/03/16 00:37:18;;;;;;;0.60;0.60;;;;;;;10.43;53.90;101946.00;691638;28;23510;-67
2022/03/16 00:37:40;;;;;;;0.60;0.60;;;;;;;10.46;53.71;101951.09;694898;28;22487;-68
2022/03/16 00:38:01;;;;;;;0.50;0.50;;;;;;;10.46;53.54;101952.97;695783;28;46364;-67
2022/03/16 00:38:22;;;;;;;0.50;0.50;;;;;;;10.48;53.66;101952.81;696139;28;21539;-67
2022/03/16 00:38:43;;;;;;;0.60;0.60;;;;;;;10.49;53.72;101951.84;697393;28;22387;-67
2022/03/16 00:39:05;;;;;;;0.60;0.60;;;;;;;10.50;53.76;101958.91;701737;28;21530;-68
2022/03/16 00:39:27;;;;;;;0.60;0.60;;;;;;;10.51;53.88;101952.53;700353;28;44470;-67
2022/03/16 00:39:48;;;;;;;0.50;0.50;;;;;;;10.52;53.56;101954.25;695219;28;47088;-68
2022/03/16 00:40:10;;;;;;;0.60;0.60;;;;;;;10.53;53.43;101950.53;693770;28;21504;-68
2022/03/16 00:40:33;;;;;;;0.65;0.65;;;;;;;10.53;53.54;101955.94;690586;28;67515;-68
2022/03/16 00:40:57;;;;;;;0.60;0.60;;;;;;;10.55;53.75;101954.78;688149;28;115144;-67
2022/03/16 00:41:18;;;;;;;0.60;0.60;;;;;;;10.54;53.66;101949.53;689700;28;23469;-68
2022/03/16 00:41:39;;;;;;;0.50;0.50;;;;;;;10.56;53.49;101950.22;689377;28;23511;-68
2022/03/16 00:42:00;;;;;;;0.55;0.55;;;;;;;10.55;53.75;101956.63;695148;28;21556;-67
2022/03/16 00:42:22;;;;;;;0.60;0.60;;;;;;;10.57;53.61;101949.25;694831;28;21255;-67
2022/03/16 00:42:44;;;;;;;0.52;0.52;;;;;;;10.56;53.50;101959.19;695504;28;45292;-67
2022/03/16 00:43:05;;;;;;;0.47;0.47;;;;;;;10.52;53.42;101955.09;695245;28;46567;-68
2022/03/16 00:43:26;;;;;;;0.50;0.50;;;;;;;10.51;53.43;101949.81;696821;28;26437;-67
2022/03/16 00:43:48;;;;;;;0.70;0.70;;;;;;;10.52;53.58;101951.53;693477;28;21542;-67
2022/03/16 00:44:10;;;;;;;0.60;0.60;;;;;;;10.51;53.58;101953.38;692518;28;29273;-67
2022/03/16 00:44:34;;;;;;;0.55;0.55;;;;;;;10.50;53.82;101956.22;690007;28;46354;-67
2022/03/16 00:44:56;;;;;;;0.50;0.50;;;;;;;10.45;53.79;101953.94;689980;28;92570;-67
2022/03/16 00:45:18;;;;;;;0.50;0.50;;;;;;;10.45;53.59;101956.66;691364;28;23317;-68
2022/03/16 00:45:39;;;;;;;0.60;0.60;;;;;;;10.42;53.73;101960.53;691177;28;68953;-67
2022/03/16 00:46:00;;;;;;;0.60;0.60;;;;;;;10.38;54.03;101951.00;689758;28;21530;-67
2022/03/16 00:46:21;;;;;;;0.52;0.52;;;;;;;10.36;54.09;101952.13;687262;28;23347;-67
2022/03/16 00:46:44;;;;;;;0.50;0.50;;;;;;;10.34;53.76;101952.28;686968;28;22266;-68
2022/03/16 00:47:05;;;;;;;0.65;0.65;;;;;;;10.33;54.19;101957.81;685574;28;45288;-68
2022/03/16 00:47:26;;;;;;;0.70;0.70;;;;;;;10.33;54.13;101958.69;686570;28;46219;-68
2022/03/16 00:47:47;;;;;;;0.60;0.60;;;;;;;10.29;54.25;101959.94;687520;28;23510;-68
2022/03/16 00:48:11;;;;;;;0.50;0.50;;;;;;;10.30;54.04;101964.34;687769;28;69498;-67
2022/03/16 00:48:32;;;;;;;0.40;0.40;;;;;;;10.28;54.09;101956.41;691540;28;45242;-67
2022/03/16 00:48:53;;;;;;;0.50;0.50;;;;;;;10.28;54.49;101963.63;692518;28;23828;-68
2022/03/16 00:49:14;;;;;;;0.60;0.60;;;;;;;10.28;54.48;101960.91;694119;28;22401;-67
2022/03/16 00:49:36;;;;;;;0.60;0.60;;;;;;;10.26;54.04;101958.38;692548;28;23497;-68
2022/03/16 00:49:57;;;;;;;0.60;0.60;;;;;;;10.27;54.29;101960.09;692939;28;46492;-68
2022/03/16 00:50:20;;;;;;;0.60;0.60;;;;;;;10.29;54.18;101959.94;693021;28;45258;-67
2022/03/16 00:50:41;;;;;;;0.70;0.70;;;;;;;10.27;54.13;101964.63;693677;28;22228;-67
2022/03/16 00:51:04;;;;;;;0.60;0.60;;;;;;;10.27;54.12;101959.25;693275;28;24429;-67
2022/03/16 00:51:26;;;;;;;0.50;0.50;;;;;;;10.27;54.47;101960.09;691789;28;92180;-68
2022/03/16 00:51:47;;;;;;;0.50;0.50;;;;;;;10.28;54.33;101963.63;696841;28;46471;-68
2022/03/16 00:52:10;;;;;;;0.60;0.60;;;;;;;10.29;54.49;101963.47;699187;28;21528;-68
2022/03/16 00:52:31;;;;;;;0.63;0.63;;;;;;;10.29;54.40;101954.53;699637;28;934;-67
2022/03/16 00:52:53;;;;;;;0.60;0.60;;;;;;;10.29;54.48;101954.53;694277;28;34919;-67
2022/03/16 00:53:14;;;;;;;0.50;0.50;;;;;;;10.31;54.41;101947.13;693172;28;47164;-68
2022/03/16 00:53:36;;;;;;;0.50;0.50;;;;;;;10.30;54.26;101948.16;694265;28;22402;-67
2022/03/16 00:53:58;;;;;;;0.60;0.60;;;;;;;10.31;54.60;101959.78;691732;28;22181;-67
2022/03/16 00:54:19;;;;;;;0.70;0.70;;;;;;;10.31;54.27;101952.53;689774;28;65232;-68
2022/03/16 00:54:40;;;;;;;0.60;0.60;;;;;;;10.33;54.29;101949.72;687717;28;22668;-67
2022/03/16 00:55:02;;;;;;;0.50;0.50;;;;;;;10.34;54.32;101951.44;687566;28;23574;-67
2022/03/16 00:55:23;;;;;;;0.57;0.57;;;;;;;10.33;54.41;101949.72;688844;28;45265;-67
2022/03/16 00:55:44;;;;;;;0.70;0.70;;;;;;;10.32;54.45;101946.16;689703;28;23626;-68
2022/03/16 00:56:07;;;;;;;0.60;0.60;;;;;;;10.32;54.26;101953.41;686948;28;20808;-67
2022/03/16 00:56:29;;;;;;;0.60;0.60;;;;;;;10.28;54.25;101959.09;686839;28;45352;-67
2022/03/16 00:56:50;;;;;;;0.50;0.50;;;;;;;10.30;54.20;101961.66;690916;28;66448;-68
2022/03/16 00:57:11;;;;;;;0.60;0.60;;;;;;;10.28;54.21;101960.91;697256;28;44393;-67
2022/03/16 00:57:32;;;;;;;0.70;0.70;;;;;;;10.27;54.37;101959.25;696090;28;22402;-67
2022/03/16 00:57:55;;;;;;;0.60;0.60;;;;;;;10.24;54.60;101960.38;694689;28;22508;-68
2022/03/16 00:58:16;;;;;;;0.55;0.55;;;;;;;10.26;54.43;101963.75;696212;28;46847;-67
2022/03/16 00:58:37;;;;;;;0.50;0.50;;;;;;;10.25;54.52;101963.91;695310;28;22236;-67
2022/03/16 00:58:58;;;;;;;0.60;0.60;;;;;;;10.27;54.35;101960.09;690733;28;21548;-67
2022/03/16 00:59:20;;;;;;;0.70;0.70;;;;;;;10.25;54.80;101959.38;692128;28;23547;-68
2022/03/16 00:59:41;;;;;;;0.60;0.60;;;;;;;10.28;54.40;101963.63;687844;28;44425;-67
2022/03/16 01:00:04;;;;;;;0.50;0.50;;;;;;;10.31;54.61;101966.03;691591;28;45274;-68
2022/03/16 01:00:25;;;;;;;0.50;0.50;;;;;;;10.28;54.62;101963.63;690651;28;70178;-67
2022/03/16 01:00:46;;;;;;;0.68;0.68;;;;;;;10.27;54.40;101960.09;691622;28;23404;-67
2022/03/16 01:01:09;;;;;;;0.65;0.65;;;;;;;10.24;54.40;101956.81;696223;28;22429;-68
2022/03/16 01:01:30;;;;;;;0.60;0.60;;;;;;;10.26;54.63;101968.31;695207;28;67561;-68
2022/03/16 01:01:52;;;;;;;0.50;0.50;;;;;;;10.24;54.56;101967.63;693413;28;23481;-67
2022/03/16 01:02:13;;;;;;;0.50;0.50;;;;;;;10.23;54.23;101971.31;691494;28;46344;-68
2022/03/16 01:02:35;;;;;;;0.70;0.70;;;;;;;10.21;54.45;101965.22;694595;28;22401;-67
2022/03/16 01:02:56;;;;;;;0.70;0.70;;;;;;;10.20;54.44;101971.59;696530;28;44136;-67
2022/03/16 01:03:17;;;;;;;0.60;0.60;;;;;;;10.17;54.59;101964.66;693880;28;23517;-68
2022/03/16 01:03:41;;;;;;;0.57;0.57;;;;;;;10.16;54.71;101964.81;691119;28;69272;-67
2022/03/16 01:04:03;;;;;;;0.50;0.50;;;;;;;10.16;54.81;101965.66;690119;28;46402;-68
2022/03/16 01:04:24;;;;;;;0.70;0.70;;;;;;;10.16;54.63;101964.81;690042;28;44395;-67
2022/03/16 01:04:45;;;;;;;0.60;0.60;;;;;;;10.16;54.70;101967.50;691437;28;22402;-67
2022/03/16 01:05:07;;;;;;;0.57;0.57;;;;;;;10.13;54.69;101957.84;687922;28;21534;-68
2022/03/16 01:05:28;;;;;;;0.50;0.50;;;;;;;10.12;54.91;101957.97;689387;28;45187;-68
2022/03/16 01:05:50;;;;;;;0.60;0.60;;;;;;;10.11;54.62;101959.84;689987;28;22380;-68
2022/03/16 01:06:15;;;;;;;0.60;0.60;;;;;;;10.08;55.01;101960.97;690239;28;46304;-67
2022/03/16 01:06:36;;;;;;;0.60;0.60;;;;;;;10.07;54.92;101953.84;687040;28;114613;-67
2022/03/16 01:06:57;;;;;;;0.50;0.50;;;;;;;10.06;55.18;101965.66;694309;28;22385;-68
2022/03/16 01:07:21;;;;;;;0.50;0.50;;;;;;;10.04;54.83;101958.69;694263;28;69437;-67
2022/03/16 01:07:42;;;;;;;0.55;0.55;;;;;;;10.04;54.91;101956.84;696098;28;46291;-68
2022/03/16 01:08:04;;;;;;;0.60;0.60;;;;;;;10.03;55.20;101956.97;696978;28;21563;-68
2022/03/16 01:08:25;;;;;;;0.50;0.50;;;;;;;10.00;55.06;101952.75;693505;28;44164;-68
2022/03/16 01:08:47;;;;;;;0.50;0.50;;;;;;;10.01;55.23;101961.69;693218;28;22423;-67
2022/03/16 01:09:08;;;;;;;0.40;0.40;;;;;;;10.00;55.22;101960.84;695231;28;44391;-68
2022/03/16 01:09:29;;;;;;;0.60;0.60;;;;;;;10.00;55.35;101955.44;693818;28;23329;-67
2022/03/16 01:09:51;;;;;;;0.70;0.70;;;;;;;10.00;55.27;101959.97;692962;28;22476;-68
2022/03/16 01:10:14;;;;;;;0.60;0.60;;;;;;;10.01;55.11;101957.13;689461;28;70387;-67
2022/03/16 01:10:35;;;;;;;0.50;0.50;;;;;;;10.02;55.35;101960.69;690019;28;46295;-67
2022/03/16 01:10:57;;;;;;;0.47;0.47;;;;;;;10.01;55.24;101958.97;690759;28;21498;-68
2022/03/16 01:11:20;;;;;;;0.60;0.60;;;;;;;9.99;55.45;101959.13;684761;28;69408;-68
2022/03/16 01:11:41;;;;;;;0.60;0.60;;;;;;;10.01;55.12;101964.38;683390;28;44360;-68
2022/03/16 01:12:03;;;;;;;0.55;0.55;;;;;;;10.00;55.39;101957.28;689553;28;22545;-67
2022/03/16 01:12:24;;;;;;;0.43;0.43;;;;;;;10.00;55.43;101963.53;691873;28;46415;-67
2022/03/16 01:12:46;;;;;;;0.45;0.45;;;;;;;10.01;55.50;101951.72;692188;28;22468;-68
2022/03/16 01:13:08;;;;;;;0.60;0.60;;;;;;;10.03;55.47;101957.84;691951;28;44568;-68
2022/03/16 01:13:29;;;;;;;0.60;0.60;;;;;;;10.05;55.28;101955.00;694545;28;21554;-67
2022/03/16 01:13:50;;;;;;;0.50;0.50;;;;;;;10.04;55.39;101964.94;691688;28;22415;-68
2022/03/16 01:14:12;;;;;;;0.50;0.50;;;;;;;10.05;55.25;101957.72;689767;28;23898;-68
2022/03/16 01:14:33;;;;;;;0.60;0.60;;;;;;;10.07;55.50;101956.56;690857;28;45030;-68
2022/03/16 01:14:54;;;;;;;0.60;0.60;;;;;;;10.07;55.35;101953.84;692720;28;45263;-68
2022/03/16 01:15:15;;;;;;;0.60;0.60;;;;;;;10.03;55.23;101954.28;694711;28;21562;-67
2022/03/16 01:15:37;;;;;;;0.50;0.50;;;;;;;10.06;55.09;101962.97;694530;28;21549;-67
2022/03/16 01:15:58;;;;;;;0.50;0.50;;;;;;;10.06;55.41;101949.47;692333;28;46260;-67
2022/03/16 01:16:21;;;;;;;0.60;0.60;;;;;;;10.09;55.25;101962.69;690828;28;45082;-68
2022/03/16 01:16:42;;;;;;;0.60;0.60;;;;;;;10.10;55.11;101952.72;694203;28;23516;-68
2022/03/16 01:17:03;;;;;;;0.60;0.60;;;;;;;10.13;55.12;101960.53;696596;28;22381;-68
2022/03/16 01:17:26;;;;;;;0.50;0.50;;;;;;;10.13;55.33;101954.28;695890;28;9475;-67
2022/03/16 01:17:47;;;;;;;0.50;0.50;;;;;;;10.15;55.26;101965.78;694602;28;27991;-67
2022/03/16 01:18:08;;;;;;;0.67;0.67;;;;;;;10.12;54.92;101956.13;691447;28;46134;-67
2022/03/16 01:18:29;;;;;;;0.60;0.60;;;;;;;10.12;54.92;101956.13;691627;28;46347;-67
2022/03/16 01:18:51;;;;;;;0.55;0.55;;;;;;;10.10;54.94;101958.97;691096;28;22397;-67
2022/03/16 01:19:14;;;;;;;0.57;0.57;;;;;;;10.09;54.81;101957.28;690591;28;69338;-67
2022/03/16 01:19:36;;;;;;;0.50;0.50;;;;;;;10.09;55.14;101954.59;691916;28;45114;-67
2022/03/16 01:19:57;;;;;;;0.60;0.60;;;;;;;10.10;54.84;101963.53;693111;28;22398;-67
2022/03/16 01:20:20;;;;;;;0.60;0.60;;;;;;;10.10;55.17;101958.97;692671;28;24595;-67
2022/03/16 01:20:41;;;;;;;0.60;0.60;;;;;;;10.10;54.98;101955.44;691842;28;67508;-68
2022/03/16 01:21:03;;;;;;;0.50;0.50;;;;;;;10.12;55.18;101963.38;693132;28;22503;-68
2022/03/16 01:21:27;;;;;;;0.50;0.50;;;;;;;10.11;55.11;101962.53;696730;28;1767;-68
2022/03/16 01:21:48;;;;;;;0.60;0.60;;;;;;;10.10;55.03;101960.81;693620;28;67340;-67
2022/03/16 01:22:09;;;;;;;0.60;0.60;;;;;;;10.10;54.98;101968.91;695470;28;22409;-68
2022/03/16 01:22:32;;;;;;;0.50;0.50;;;;;;;10.09;55.07;101965.38;694734;28;67474;-68
2022/03/16 01:22:54;;;;;;;0.50;0.50;;;;;;;10.07;55.21;101958.41;696399;28;23467;-68
2022/03/16 01:23:15;;;;;;;0.50;0.50;;;;;;;10.07;55.23;101961.94;693492;28;45236;-68
2022/03/16 01:23:36;;;;;;;0.70;0.70;;;;;;;10.07;55.18;101959.25;696384;28;22395;-68
2022/03/16 01:23:58;;;;;;;0.60;0.60;;;;;;;10.09;55.51;101968.09;696775;28;22437;-68
2022/03/16 01:24:19;;;;;;;0.60;0.60;;;;;;;10.09;55.15;101962.69;699689;28;44377;-67
2022/03/16 01:24:41;;;;;;;0.43;0.43;;;;;;;10.08;55.04;101963.66;701604;28;22405;-68
2022/03/16 01:25:03;;;;;;;0.50;0.50;;;;;;;10.06;55.48;101962.97;700542;28;69512;-68
2022/03/16 01:25:24;;;;;;;0.70;0.70;;;;;;;10.07;55.19;101964.66;700868;28;22411;-68
2022/03/16 01:25:45;;;;;;;0.60;0.60;;;;;;;10.07;55.41;101967.34;698401;28;22418;-67
2022/03/16 01:26:08;;;;;;;0.50;0.50;;;;;;;10.08;55.08;101960.97;697185;28;46350;-68
2022/03/16 01:26:29;;;;;;;0.40;0.40;;;;;;;10.08;55.24;101963.66;693633;28;45304;-68
2022/03/16 01:26:50;;;;;;;0.50;0.50;;;;;;;10.08;55.48;101963.66;697302;28;22412;-68
2022/03/16 01:27:12;;;;;;;0.63;0.63;;;;;;;10.09;55.49;101964.50;695459;28;24410;-67
2022/03/16 01:27:33;;;;;;;0.60;0.60;;;;;;;10.10;55.54;101960.81;695916;28;46297;-67
2022/03/16 01:27:55;;;;;;;0.50;0.50;;;;;;;10.11;55.14;101962.53;699128;28;44385;-68
2022/03/16 01:28:16;;;;;;;0.40;0.40;;;;;;;10.13;55.40;101965.09;695610;28;22391;-67
2022/03/16 01:28:38;;;;;;;0.50;0.50;;;;;;;10.13;55.45;101959.69;696369;28;21541;-67
2022/03/16 01:29:01;;;;;;;0.60;0.60;;;;;;;10.13;55.19;101965.09;695194;28;46216;-67
2022/03/16 01:29:24;;;;;;;0.60;0.60;;;;;;;10.14;55.05;101964.06;691826;28;70815;-67
2022/03/16 01:29:45;;;;;;;0.50;0.50;;;;;;;10.13;55.12;101968.63;689761;28;69501;-67
2022/03/16 01:30:08;;;;;;;0.40;0.40;;;;;;;10.13;55.20;101965.94;692863;28;22327;-67
2022/03/16 01:30:29;;;;;;;0.60;0.60;;;;;;;10.14;55.06;101966.78;693250;28;67333;-67
2022/03/16 01:30:50;;;;;;;0.70;0.70;;;;;;;10.13;55.32;101960.53;694664;28;22409;-67
2022/03/16 01:31:11;;;;;;;0.60;0.60;;;;;;;10.13;55.32;101960.53;692308;28;23971;-67
2022/03/16 01:31:32;;;;;;;0.50;0.50;;;;;;;10.13;55.20;101965.94;692750;28;22469;-67
2022/03/16 01:31:54;;;;;;;0.50;0.50;;;;;;;10.14;55.08;101966.78;693414;28;24524;-67
2022/03/16 01:32:18;;;;;;;0.60;0.60;;;;;;;10.13;55.24;101959.69;690098;28;114629;-67
2022/03/16 01:32:40;;;;;;;0.60;0.60;;;;;;;10.09;55.16;101959.97;693627;28;21553;-66
2022/03/16 01:33:01;;;;;;;0.55;0.55;;;;;;;10.11;55.22;101959.84;694289;28;45105;-66
2022/03/16 01:33:23;;;;;;;0.52;0.52;;;;;;;10.12;55.32;101964.22;698789;28;22428;-66
2022/03/16 01:33:44;;;;;;;0.40;0.40;;;;;;;10.12;55.13;101958.81;695987;28;18854;-67
2022/03/16 01:34:05;;;;;;;0.57;0.57;;;;;;;10.10;55.39;101958.97;696242;28;21540;-67
2022/03/16 01:34:26;;;;;;;0.70;0.70;;;;;;;10.10;55.05;101963.53;696274;28;23455;-67
2022/03/16 01:34:48;;;;;;;0.57;0.57;;;;;;;10.09;55.21;101962.69;696443;28;22381;-67
2022/03/16 01:35:10;;;;;;;0.50;0.50;;;;;;;10.09;55.03;101961.81;694522;28;45439;-67
2022/03/16 01:35:31;;;;;;;0.40;0.40;;;;;;;10.07;55.48;101959.25;695960;28;44425;-67
2022/03/16 01:35:53;;;;;;;0.60;0.60;;;;;;;10.05;55.18;101963.97;696172;28;22395;-67
2022/03/16 01:36:14;;;;;;;0.70;0.70;;;;;;;10.04;55.23;101958.69;695743;28;46356;-67
2022/03/16 01:36:37;;;;;;;0.63;0.63;;;;;;;10.01;55.36;101962.53;698325;28;22393;-67
2022/03/16 01:37:00;;;;;;;0.40;0.40;;;;;;;10.00;55.47;101960.84;696966;28;69320;-67
2022/03/16 01:37:22;;;;;;;0.50;0.50;;;;;;;10.01;55.58;101961.69;693364;28;69759;-67
2022/03/16 01:37:45;;;;;;;0.68;0.68;;;;;;;9.98;55.54;101961.97;695908;28;68165;-67
2022/03/16 01:38:06;;;;;;;0.50;0.50;;;;;;;9.98;55.74;101957.41;696282;28;67311;-67
2022/03/16 01:38:27;;;;;;;0.50;0.50;;;;;;;9.99;55.82;101959.13;696173;28;22406;-67
2022/03/16 01:38:48;;;;;;;0.50;0.50;;;;;;;9.95;55.76;101959.56;696407;28;23486;-67
2022/03/16 01:39:10;;;;;;;0.50;0.50;;;;;;;9.93;55.69;101962.41;695413;28;22265;-67
2022/03/16 01:39:31;;;;;;;0.65;0.65;;;;;;;9.93;55.30;101957.00;697994;28;44189;-66
2022/03/16 01:39:52;;;;;;;0.60;0.60;;;;;;;9.88;55.83;101960.13;692816;28;19491;-67
2022/03/16 01:40:14;;;;;;;0.60;0.60;;;;;;;9.85;55.87;101963.09;693718;28;24373;-67
2022/03/16 01:40:36;;;;;;;0.52;0.52;;;;;;;9.85;55.73;101955.00;691216;28;23516;-67
2022/03/16 01:40:57;;;;;;;0.50;0.50;;;;;;;9.86;56.02;101964.81;690838;28;46329;-67
2022/03/16 01:41:18;;;;;;;0.70;0.70;;;;;;;9.87;56.05;101957.56;692239;28;46702;-67
2022/03/16 01:41:39;;;;;;;0.60;0.60;;;;;;;9.86;55.80;101962.13;690653;28;22412;-67
2022/03/16 01:42:01;;;;;;;0.50;0.50;;;;;;;9.86;55.84;101963.97;696332;28;23476;-67
2022/03/16 01:42:22;;;;;;;0.50;0.50;;;;;;;9.85;56.01;101963.09;695355;28;45264;-67